METAR Data

Data at: 0102 UTC 23 Mar 2019

METAR for:KORD (Chicago/O'Hare Intl, IL, US)
Text:KORD 230051Z 06008KT 10SM CLR 01/M04 A3022 RMK AO2 SLP241 T00061039
Temperature: 0.6°C ( 33°F)
Dewpoint: -3.9°C ( 25°F) [RH = 72%]
Pressure (altimeter):30.22 inches Hg (1023.5 mb) [Sea level pressure: 1024.1 mb]
Winds:from the ENE (60 degrees) at 9 MPH (8 knots; 4.1 m/s)
Visibility:10 or more sm (16+ km)
Ceiling:at least 12,000 feet AGL
Clouds:sky clear below 12,000 feet AGL